Christos Xvii — SV6732 — position and weather

sailwx.info

Track history (hours):
 
Tides and Currents Weather Stations Pressure Air Temp Water Temp Dewpoint Dewpoint Depression Visibility Wind Speed Wind Dir Waves Ship Positions

Christos Xvii

Last reported at 2018-Apr-18 16:05 UTC. Time now 2018-Jun-22 09:18 UTC.
Position N 37°44' E 023°47'.
Warning: this ship's position is months out of date.

Length 25 m; draft 3.5 m.

Type: Tug. MMSI: 240922000.

Date/timePositionNaut miles runAvg speedWind from/ knotsBaromVisibWave heightAir tempDewpointWater temp
2018-Apr-18 16:05N 37°44' E 023°47'110.3
2018-Apr-18 16:00N 37°44' E 023°46'510.2
2018-Apr-18 15:30N 37°48' E 023°43'510.1
2018-Apr-18 15:00N 37°53' E 023°40'5 9.3
2018-Apr-18 14:30N 37°57' E 023°36'3 5.1
2018-Apr-18 14:00N 37°57' E 023°33'0 0.0
2018-Apr-18 13:30N 37°57' E 023°33'0 0.0
2018-Apr-18 13:00N 37°57' E 023°33'1 2.0
2018-Apr-18 12:30N 37°57' E 023°34'3 6.5
2018-Apr-18 12:00N 37°55' E 023°38'3 5.8
2018-Apr-18 11:30N 37°52' E 023°39'2 4.8
2018-Apr-18 11:00N 37°50' E 023°40'4 7.7
2018-Apr-18 10:30N 37°47' E 023°43'4 7.7
2018-Apr-18 10:00N 37°44' E 023°46'  
Track history (hours):
 
Tides and Currents Weather Stations Pressure Air Temp Water Temp Dewpoint Dewpoint Depression Visibility Wind Speed Wind Dir Waves Ship Positions

Christos Xvii

Last reported at 2018-Apr-18 16:05 UTC. Time now 2018-Jun-22 09:18 UTC.
Position N 37°44' E 023°47'.
Warning: this ship's position is months out of date.

Length 25 m; draft 3.5 m.

Type: Tug. MMSI: 240922000.

Date/timePositionNaut miles runAvg speedWind from/ knotsBaromVisibWave heightAir tempDewpointWater temp
2018-Apr-18 16:05N 37°44' E 023°47'110.3
2018-Apr-18 16:00N 37°44' E 023°46'510.2
2018-Apr-18 15:30N 37°48' E 023°43'510.1
2018-Apr-18 15:00N 37°53' E 023°40'5 9.3
2018-Apr-18 14:30N 37°57' E 023°36'3 5.1
2018-Apr-18 14:00N 37°57' E 023°33'0 0.0
2018-Apr-18 13:30N 37°57' E 023°33'0 0.0
2018-Apr-18 13:00N 37°57' E 023°33'1 2.0
2018-Apr-18 12:30N 37°57' E 023°34'3 6.5
2018-Apr-18 12:00N 37°55' E 023°38'3 5.8
2018-Apr-18 11:30N 37°52' E 023°39'2 4.8
2018-Apr-18 11:00N 37°50' E 023°40'4 7.7
2018-Apr-18 10:30N 37°47' E 023°43'4 7.7
2018-Apr-18 10:00N 37°44' E 023°46'  

Dump ship's entire track history